sensor_id;sensor_type;location;lat;lon;timestamp;temperature;humidity
18794;DHT22;29610;49.022;12.114;2023-07-13T00:01:16;18.80;99.90
18794;DHT22;29610;49.022;12.114;2023-07-13T00:03:45;18.80;99.90
18794;DHT22;29610;49.022;12.114;2023-07-13T00:06:14;18.80;99.90
18794;DHT22;29610;49.022;12.114;2023-07-13T00:08:43;18.80;99.90
18794;DHT22;29610;49.022;12.114;2023-07-13T00:11:11;18.80;99.90
18794;DHT22;29610;49.022;12.114;2023-07-13T00:13:40;18.80;99.90
18794;DHT22;29610;49.022;12.114;2023-07-13T00:16:10;18.70;99.90
18794;DHT22;29610;49.022;12.114;2023-07-13T00:18:42;18.70;99.90
18794;DHT22;29610;49.022;12.114;2023-07-13T00:21:11;18.60;99.90
18794;DHT22;29610;49.022;12.114;2023-07-13T00:23:41;18.60;99.90
18794;DHT22;29610;49.022;12.114;2023-07-13T00:26:11;18.60;99.90
18794;DHT22;29610;49.022;12.114;2023-07-13T00:28:41;18.60;99.90
18794;DHT22;29610;49.022;12.114;2023-07-13T00:31:11;18.60;99.90
18794;DHT22;29610;49.022;12.114;2023-07-13T00:33:43;18.60;99.90
18794;DHT22;29610;49.022;12.114;2023-07-13T00:36:12;18.50;99.90
18794;DHT22;29610;49.022;12.114;2023-07-13T00:38:41;18.40;99.90
18794;DHT22;29610;49.022;12.114;2023-07-13T00:41:10;18.50;99.90
18794;DHT22;29610;49.022;12.114;2023-07-13T00:43:40;18.40;99.90
18794;DHT22;29610;49.022;12.114;2023-07-13T00:46:22;18.30;99.90
18794;DHT22;29610;49.022;12.114;2023-07-13T00:48:56;18.30;99.90
18794;DHT22;29610;49.022;12.114;2023-07-13T00:51:31;18.30;99.90
18794;DHT22;29610;49.022;12.114;2023-07-13T00:54:05;18.30;99.90
18794;DHT22;29610;49.022;12.114;2023-07-13T00:56:38;18.20;99.90
18794;DHT22;29610;49.022;12.114;2023-07-13T00:59:10;18.20;99.90
18794;DHT22;29610;49.022;12.114;2023-07-13T01:01:41;18.20;99.90
18794;DHT22;29610;49.022;12.114;2023-07-13T01:04:11;18.20;99.90
18794;DHT22;29610;49.022;12.114;2023-07-13T01:06:41;18.30;99.90
18794;DHT22;29610;49.022;12.114;2023-07-13T01:09:11;18.40;99.90
18794;DHT22;29610;49.022;12.114;2023-07-13T01:11:41;18.40;99.90
18794;DHT22;29610;49.022;12.114;2023-07-13T01:14:12;18.40;99.90
18794;DHT22;29610;49.022;12.114;2023-07-13T01:16:46;18.40;99.90
18794;DHT22;29610;49.022;12.114;2023-07-13T01:19:26;18.40;99.90
18794;DHT22;29610;49.022;12.114;2023-07-13T01:22:07;18.50;99.90
18794;DHT22;29610;49.022;12.114;2023-07-13T01:24:40;18.40;99.90
18794;DHT22;29610;49.022;12.114;2023-07-13T01:27:12;18.50;99.90
18794;DHT22;29610;49.022;12.114;2023-07-13T01:29:45;18.50;99.90
18794;DHT22;29610;49.022;12.114;2023-07-13T01:32:17;18.50;99.90
18794;DHT22;29610;49.022;12.114;2023-07-13T01:34:51;18.50;99.90
18794;DHT22;29610;49.022;12.114;2023-07-13T01:37:23;18.40;99.90
18794;DHT22;29610;49.022;12.114;2023-07-13T01:39:53;18.40;99.90
18794;DHT22;29610;49.022;12.114;2023-07-13T01:42:22;18.40;99.90
18794;DHT22;29610;49.022;12.114;2023-07-13T01:44:51;18.30;99.90
18794;DHT22;29610;49.022;12.114;2023-07-13T01:47:19;18.30;99.90
18794;DHT22;29610;49.022;12.114;2023-07-13T01:49:48;18.20;99.90
18794;DHT22;29610;49.022;12.114;2023-07-13T01:52:18;18.20;99.90
18794;DHT22;29610;49.022;12.114;2023-07-13T01:54:49;18.20;99.90
18794;DHT22;29610;49.022;12.114;2023-07-13T01:57:18;18.10;99.90
18794;DHT22;29610;49.022;12.114;2023-07-13T01:59:46;18.10;99.90
18794;DHT22;29610;49.022;12.114;2023-07-13T02:02:15;18.20;99.90
18794;DHT22;29610;49.022;12.114;2023-07-13T02:04:43;18.20;99.90
18794;DHT22;29610;49.022;12.114;2023-07-13T02:07:13;18.20;99.90
18794;DHT22;29610;49.022;12.114;2023-07-13T02:09:44;18.20;99.90
18794;DHT22;29610;49.022;12.114;2023-07-13T02:12:14;18.20;99.90
18794;DHT22;29610;49.022;12.114;2023-07-13T02:14:42;18.10;99.90
18794;DHT22;29610;49.022;12.114;2023-07-13T02:17:11;18.10;99.90
18794;DHT22;29610;49.022;12.114;2023-07-13T02:19:40;18.00;99.90
18794;DHT22;29610;49.022;12.114;2023-07-13T02:22:08;18.00;99.90
18794;DHT22;29610;49.022;12.114;2023-07-13T02:24:37;17.90;99.90
18794;DHT22;29610;49.022;12.114;2023-07-13T02:27:06;17.90;99.90
18794;DHT22;29610;49.022;12.114;2023-07-13T02:29:36;17.80;99.90
18794;DHT22;29610;49.022;12.114;2023-07-13T02:32:05;17.70;99.90
18794;DHT22;29610;49.022;12.114;2023-07-13T02:34:35;17.70;99.90
18794;DHT22;29610;49.022;12.114;2023-07-13T02:37:04;17.50;99.90
18794;DHT22;29610;49.022;12.114;2023-07-13T02:39:33;17.50;99.90
18794;DHT22;29610;49.022;12.114;2023-07-13T02:42:03;17.40;99.90
18794;DHT22;29610;49.022;12.114;2023-07-13T02:44:32;17.30;99.90
18794;DHT22;29610;49.022;12.114;2023-07-13T02:47:02;17.30;99.90
18794;DHT22;29610;49.022;12.114;2023-07-13T02:49:31;17.20;99.90
18794;DHT22;29610;49.022;12.114;2023-07-13T02:52:00;17.20;99.90
18794;DHT22;29610;49.022;12.114;2023-07-13T02:54:31;17.20;99.90
18794;DHT22;29610;49.022;12.114;2023-07-13T02:57:00;17.10;99.90
18794;DHT22;29610;49.022;12.114;2023-07-13T02:59:28;17.10;99.90
18794;DHT22;29610;49.022;12.114;2023-07-13T03:01:57;17.10;99.90
18794;DHT22;29610;49.022;12.114;2023-07-13T03:04:27;17.00;99.90
18794;DHT22;29610;49.022;12.114;2023-07-13T03:06:56;17.00;99.90
18794;DHT22;29610;49.022;12.114;2023-07-13T03:09:33;16.90;99.90
18794;DHT22;29610;49.022;12.114;2023-07-13T03:12:05;16.90;99.90
18794;DHT22;29610;49.022;12.114;2023-07-13T03:14:35;16.90;99.90
18794;DHT22;29610;49.022;12.114;2023-07-13T03:17:06;16.90;99.90
18794;DHT22;29610;49.022;12.114;2023-07-13T03:19:40;16.90;99.90
18794;DHT22;29610;49.022;12.114;2023-07-13T03:22:08;16.90;99.90
18794;DHT22;29610;49.022;12.114;2023-07-13T03:24:39;16.80;99.90
18794;DHT22;29610;49.022;12.114;2023-07-13T03:27:07;16.80;99.90
18794;DHT22;29610;49.022;12.114;2023-07-13T03:29:40;16.80;99.90
18794;DHT22;29610;49.022;12.114;2023-07-13T03:32:09;16.80;99.90
18794;DHT22;29610;49.022;12.114;2023-07-13T03:34:37;16.80;99.90
18794;DHT22;29610;49.022;12.114;2023-07-13T03:37:07;16.80;99.90
18794;DHT22;29610;49.022;12.114;2023-07-13T03:39:37;16.80;99.90
18794;DHT22;29610;49.022;12.114;2023-07-13T03:42:06;16.80;99.90
18794;DHT22;29610;49.022;12.114;2023-07-13T03:44:35;16.80;99.90
18794;DHT22;29610;49.022;12.114;2023-07-13T03:47:04;16.80;99.90
18794;DHT22;29610;49.022;12.114;2023-07-13T03:49:36;16.80;99.90
18794;DHT22;29610;49.022;12.114;2023-07-13T03:52:06;17.00;99.90
18794;DHT22;29610;49.022;12.114;2023-07-13T03:54:35;16.80;99.90
18794;DHT22;29610;49.022;12.114;2023-07-13T03:57:05;16.80;99.90
18794;DHT22;29610;49.022;12.114;2023-07-13T03:59:36;16.80;99.90
18794;DHT22;29610;49.022;12.114;2023-07-13T04:02:04;16.90;99.90
18794;DHT22;29610;49.022;12.114;2023-07-13T04:04:34;16.90;99.90
18794;DHT22;29610;49.022;12.114;2023-07-13T04:07:03;16.90;99.90
18794;DHT22;29610;49.022;12.114;2023-07-13T04:09:33;17.00;99.90
18794;DHT22;29610;49.022;12.114;2023-07-13T04:12:03;17.00;99.90
18794;DHT22;29610;49.022;12.114;2023-07-13T04:14:32;17.10;99.90
18794;DHT22;29610;49.022;12.114;2023-07-13T04:17:01;17.30;99.90
18794;DHT22;29610;49.022;12.114;2023-07-13T04:19:30;17.40;99.90
18794;DHT22;29610;49.022;12.114;2023-07-13T04:21:58;17.50;99.90
18794;DHT22;29610;49.022;12.114;2023-07-13T04:24:27;17.70;99.90
18794;DHT22;29610;49.022;12.114;2023-07-13T04:26:57;17.80;99.90
18794;DHT22;29610;49.022;12.114;2023-07-13T04:29:26;18.00;99.90
18794;DHT22;29610;49.022;12.114;2023-07-13T04:31:55;18.20;99.90
18794;DHT22;29610;49.022;12.114;2023-07-13T04:34:23;18.30;99.90
18794;DHT22;29610;49.022;12.114;2023-07-13T04:36:52;18.50;99.90
18794;DHT22;29610;49.022;12.114;2023-07-13T04:39:21;18.70;99.90
18794;DHT22;29610;49.022;12.114;2023-07-13T04:41:51;18.80;99.90
18794;DHT22;29610;49.022;12.114;2023-07-13T04:44:21;18.90;99.90
18794;DHT22;29610;49.022;12.114;2023-07-13T04:46:50;18.90;99.90
18794;DHT22;29610;49.022;12.114;2023-07-13T04:49:18;19.00;99.90
18794;DHT22;29610;49.022;12.114;2023-07-13T04:51:47;19.00;99.90
18794;DHT22;29610;49.022;12.114;2023-07-13T04:54:15;18.90;99.90
18794;DHT22;29610;49.022;12.114;2023-07-13T04:56:44;18.90;99.90
18794;DHT22;29610;49.022;12.114;2023-07-13T04:59:12;18.90;99.90
18794;DHT22;29610;49.022;12.114;2023-07-13T05:01:42;18.90;99.90
18794;DHT22;29610;49.022;12.114;2023-07-13T05:04:11;18.90;99.90
18794;DHT22;29610;49.022;12.114;2023-07-13T05:06:39;19.00;99.90
18794;DHT22;29610;49.022;12.114;2023-07-13T05:09:08;19.00;99.90
18794;DHT22;29610;49.022;12.114;2023-07-13T05:11:36;19.00;99.90
18794;DHT22;29610;49.022;12.114;2023-07-13T05:14:05;19.10;99.90
18794;DHT22;29610;49.022;12.114;2023-07-13T05:16:33;19.00;99.90
18794;DHT22;29610;49.022;12.114;2023-07-13T05:19:03;18.90;99.90
18794;DHT22;29610;49.022;12.114;2023-07-13T05:21:32;18.90;99.90
18794;DHT22;29610;49.022;12.114;2023-07-13T05:24:01;18.80;99.90
18794;DHT22;29610;49.022;12.114;2023-07-13T05:26:45;18.70;99.90
18794;DHT22;29610;49.022;12.114;2023-07-13T05:29:14;18.70;99.90
18794;DHT22;29610;49.022;12.114;2023-07-13T05:31:42;19.00;99.90
18794;DHT22;29610;49.022;12.114;2023-07-13T05:34:12;19.30;99.90
18794;DHT22;29610;49.022;12.114;2023-07-13T05:36:41;19.60;99.90
18794;DHT22;29610;49.022;12.114;2023-07-13T05:39:10;19.80;99.90
18794;DHT22;29610;49.022;12.114;2023-07-13T05:41:39;20.00;99.90
18794;DHT22;29610;49.022;12.114;2023-07-13T05:44:08;20.10;99.90
18794;DHT22;29610;49.022;12.114;2023-07-13T05:46:37;20.00;99.90
18794;DHT22;29610;49.022;12.114;2023-07-13T05:49:05;20.00;99.90
18794;DHT22;29610;49.022;12.114;2023-07-13T05:51:35;19.90;99.90
18794;DHT22;29610;49.022;12.114;2023-07-13T05:54:04;19.90;99.90
18794;DHT22;29610;49.022;12.114;2023-07-13T05:56:33;19.80;99.90
18794;DHT22;29610;49.022;12.114;2023-07-13T05:59:01;19.80;99.90
18794;DHT22;29610;49.022;12.114;2023-07-13T06:01:31;20.00;99.90
18794;DHT22;29610;49.022;12.114;2023-07-13T06:04:00;20.00;99.90
18794;DHT22;29610;49.022;12.114;2023-07-13T06:06:29;20.10;99.90
18794;DHT22;29610;49.022;12.114;2023-07-13T06:08:58;20.10;99.90
18794;DHT22;29610;49.022;12.114;2023-07-13T06:11:27;20.10;99.90
18794;DHT22;29610;49.022;12.114;2023-07-13T06:13:57;19.80;99.90
18794;DHT22;29610;49.022;12.114;2023-07-13T06:16:26;19.80;99.90
18794;DHT22;29610;49.022;12.114;2023-07-13T06:18:54;19.80;99.90
18794;DHT22;29610;49.022;12.114;2023-07-13T06:21:23;20.10;99.90
18794;DHT22;29610;49.022;12.114;2023-07-13T06:23:52;20.40;99.90
18794;DHT22;29610;49.022;12.114;2023-07-13T06:26:22;20.70;99.90
18794;DHT22;29610;49.022;12.114;2023-07-13T06:28:51;20.90;99.90
18794;DHT22;29610;49.022;12.114;2023-07-13T06:31:20;21.00;99.70
18794;DHT22;29610;49.022;12.114;2023-07-13T06:33:49;21.00;98.70
18794;DHT22;29610;49.022;12.114;2023-07-13T06:36:17;20.90;98.60
18794;DHT22;29610;49.022;12.114;2023-07-13T06:38:46;20.90;98.60
18794;DHT22;29610;49.022;12.114;2023-07-13T06:41:15;20.80;99.00
18794;DHT22;29610;49.022;12.114;2023-07-13T06:43:44;20.70;99.10
18794;DHT22;29610;49.022;12.114;2023-07-13T06:46:13;20.70;99.10
18794;DHT22;29610;49.022;12.114;2023-07-13T06:48:42;20.70;98.00
18794;DHT22;29610;49.022;12.114;2023-07-13T06:51:10;20.80;98.40
18794;DHT22;29610;49.022;12.114;2023-07-13T06:53:39;21.10;98.30
18794;DHT22;29610;49.022;12.114;2023-07-13T06:56:10;21.20;96.90
18794;DHT22;29610;49.022;12.114;2023-07-13T06:58:39;21.50;96.10
18794;DHT22;29610;49.022;12.114;2023-07-13T07:01:09;21.60;95.80
18794;DHT22;29610;49.022;12.114;2023-07-13T07:03:38;21.70;95.40
18794;DHT22;29610;49.022;12.114;2023-07-13T07:06:13;21.80;95.50
18794;DHT22;29610;49.022;12.114;2023-07-13T07:08:44;22.00;94.30
18794;DHT22;29610;49.022;12.114;2023-07-13T07:11:16;22.20;93.70
18794;DHT22;29610;49.022;12.114;2023-07-13T07:13:45;22.30;93.30
18794;DHT22;29610;49.022;12.114;2023-07-13T07:16:15;22.30;93.00
18794;DHT22;29610;49.022;12.114;2023-07-13T07:18:45;22.70;93.10
18794;DHT22;29610;49.022;12.114;2023-07-13T07:21:14;22.90;92.50
18794;DHT22;29610;49.022;12.114;2023-07-13T07:23:43;23.40;91.80
18794;DHT22;29610;49.022;12.114;2023-07-13T07:26:11;23.50;89.60
18794;DHT22;29610;49.022;12.114;2023-07-13T07:28:40;23.50;90.40
18794;DHT22;29610;49.022;12.114;2023-07-13T07:31:16;23.70;88.80
18794;DHT22;29610;49.022;12.114;2023-07-13T07:33:47;24.30;87.30
18794;DHT22;29610;49.022;12.114;2023-07-13T07:36:18;24.50;86.20
18794;DHT22;29610;49.022;12.114;2023-07-13T07:38:49;24.70;85.30
18794;DHT22;29610;49.022;12.114;2023-07-13T07:41:17;25.00;83.00
18794;DHT22;29610;49.022;12.114;2023-07-13T07:43:49;25.20;83.30
18794;DHT22;29610;49.022;12.114;2023-07-13T07:46:19;25.60;81.60
18794;DHT22;29610;49.022;12.114;2023-07-13T07:48:47;25.40;78.10
18794;DHT22;29610;49.022;12.114;2023-07-13T07:51:16;24.70;78.10
18794;DHT22;29610;49.022;12.114;2023-07-13T07:53:44;24.20;79.30
18794;DHT22;29610;49.022;12.114;2023-07-13T07:56:13;24.20;81.20
18794;DHT22;29610;49.022;12.114;2023-07-13T07:58:46;24.30;79.90
18794;DHT22;29610;49.022;12.114;2023-07-13T08:01:18;24.30;79.70
18794;DHT22;29610;49.022;12.114;2023-07-13T08:03:50;24.00;80.70
18794;DHT22;29610;49.022;12.114;2023-07-13T08:06:22;24.10;81.20
18794;DHT22;29610;49.022;12.114;2023-07-13T08:08:53;24.20;80.80
18794;DHT22;29610;49.022;12.114;2023-07-13T08:11:22;24.50;79.20
18794;DHT22;29610;49.022;12.114;2023-07-13T08:13:54;24.70;78.50
18794;DHT22;29610;49.022;12.114;2023-07-13T08:16:24;24.80;76.40
18794;DHT22;29610;49.022;12.114;2023-07-13T08:18:52;24.70;75.00
18794;DHT22;29610;49.022;12.114;2023-07-13T08:21:21;24.60;73.50
18794;DHT22;29610;49.022;12.114;2023-07-13T08:23:50;24.60;73.50
18794;DHT22;29610;49.022;12.114;2023-07-13T08:26:19;24.70;74.30
18794;DHT22;29610;49.022;12.114;2023-07-13T08:28:48;25.00;74.10
18794;DHT22;29610;49.022;12.114;2023-07-13T08:31:17;25.00;73.50
18794;DHT22;29610;49.022;12.114;2023-07-13T08:33:47;25.20;73.40
18794;DHT22;29610;49.022;12.114;2023-07-13T08:36:16;25.40;72.40
18794;DHT22;29610;49.022;12.114;2023-07-13T08:38:45;25.30;70.50
18794;DHT22;29610;49.022;12.114;2023-07-13T08:41:15;25.50;70.60
18794;DHT22;29610;49.022;12.114;2023-07-13T08:43:47;25.70;71.00
18794;DHT22;29610;49.022;12.114;2023-07-13T08:46:20;25.50;68.60
18794;DHT22;29610;49.022;12.114;2023-07-13T08:48:58;25.80;67.20
18794;DHT22;29610;49.022;12.114;2023-07-13T08:51:39;26.20;65.30
18794;DHT22;29610;49.022;12.114;2023-07-13T08:54:22;26.30;63.40
18794;DHT22;29610;49.022;12.114;2023-07-13T08:56:56;26.10;63.00
18794;DHT22;29610;49.022;12.114;2023-07-13T08:59:30;25.90;64.90
18794;DHT22;29610;49.022;12.114;2023-07-13T09:02:17;26.30;62.80
18794;DHT22;29610;49.022;12.114;2023-07-13T09:04:57;26.60;61.70
18794;DHT22;29610;49.022;12.114;2023-07-13T09:07:42;26.20;60.90
18794;DHT22;29610;49.022;12.114;2023-07-13T09:10:28;26.10;62.70
18794;DHT22;29610;49.022;12.114;2023-07-13T09:13:06;26.70;63.00
18794;DHT22;29610;49.022;12.114;2023-07-13T09:15:45;27.30;60.50
18794;DHT22;29610;49.022;12.114;2023-07-13T09:18:21;27.40;60.60
18794;DHT22;29610;49.022;12.114;2023-07-13T09:21:00;27.10;60.00
18794;DHT22;29610;49.022;12.114;2023-07-13T09:23:32;27.60;62.10
18794;DHT22;29610;49.022;12.114;2023-07-13T09:26:04;27.80;61.60
18794;DHT22;29610;49.022;12.114;2023-07-13T09:28:38;28.30;61.10
18794;DHT22;29610;49.022;12.114;2023-07-13T09:31:13;27.50;59.90
18794;DHT22;29610;49.022;12.114;2023-07-13T09:33:43;26.70;61.70
18794;DHT22;29610;49.022;12.114;2023-07-13T09:36:19;25.90;64.70
18794;DHT22;29610;49.022;12.114;2023-07-13T09:38:59;26.00;65.30
18794;DHT22;29610;49.022;12.114;2023-07-13T09:41:40;26.60;64.60
18794;DHT22;29610;49.022;12.114;2023-07-13T09:44:15;27.10;61.60
18794;DHT22;29610;49.022;12.114;2023-07-13T09:46:52;27.30;59.30
18794;DHT22;29610;49.022;12.114;2023-07-13T09:49:24;27.40;57.50
18794;DHT22;29610;49.022;12.114;2023-07-13T09:52:00;27.20;57.50
18794;DHT22;29610;49.022;12.114;2023-07-13T09:54:33;27.40;58.30
18794;DHT22;29610;49.022;12.114;2023-07-13T09:57:12;27.30;55.00
18794;DHT22;29610;49.022;12.114;2023-07-13T09:59:45;27.20;53.90
18794;DHT22;29610;49.022;12.114;2023-07-13T10:02:29;27.00;55.40
18794;DHT22;29610;49.022;12.114;2023-07-13T10:05:03;27.20;54.70
18794;DHT22;29610;49.022;12.114;2023-07-13T10:07:39;27.50;56.80
18794;DHT22;29610;49.022;12.114;2023-07-13T10:10:14;27.60;55.50
18794;DHT22;29610;49.022;12.114;2023-07-13T10:12:47;28.20;55.30
18794;DHT22;29610;49.022;12.114;2023-07-13T10:15:18;27.90;54.90
18794;DHT22;29610;49.022;12.114;2023-07-13T10:17:52;28.50;55.60
18794;DHT22;29610;49.022;12.114;2023-07-13T10:20:26;28.80;53.80
18794;DHT22;29610;49.022;12.114;2023-07-13T10:22:59;29.20;53.40
18794;DHT22;29610;49.022;12.114;2023-07-13T10:25:31;29.60;52.30
18794;DHT22;29610;49.022;12.114;2023-07-13T10:28:05;30.40;51.60
18794;DHT22;29610;49.022;12.114;2023-07-13T10:30:46;30.30;48.90
18794;DHT22;29610;49.022;12.114;2023-07-13T10:33:16;30.20;49.00
18794;DHT22;29610;49.022;12.114;2023-07-13T10:35:45;30.00;49.20
18794;DHT22;29610;49.022;12.114;2023-07-13T10:38:20;30.00;48.30
18794;DHT22;29610;49.022;12.114;2023-07-13T10:40:57;30.20;49.50
18794;DHT22;29610;49.022;12.114;2023-07-13T10:43:34;29.90;49.70
18794;DHT22;29610;49.022;12.114;2023-07-13T10:46:12;30.00;48.90
18794;DHT22;29610;49.022;12.114;2023-07-13T10:48:46;29.90;52.80
18794;DHT22;29610;49.022;12.114;2023-07-13T10:51:19;29.60;51.40
18794;DHT22;29610;49.022;12.114;2023-07-13T10:54:14;29.40;51.40
18794;DHT22;29610;49.022;12.114;2023-07-13T10:56:50;28.90;50.40
18794;DHT22;29610;49.022;12.114;2023-07-13T10:59:25;28.60;51.80
18794;DHT22;29610;49.022;12.114;2023-07-13T11:02:06;28.20;52.10
18794;DHT22;29610;49.022;12.114;2023-07-13T11:04:41;27.40;52.30
18794;DHT22;29610;49.022;12.114;2023-07-13T11:07:19;26.70;53.70
18794;DHT22;29610;49.022;12.114;2023-07-13T11:09:52;26.40;54.10
18794;DHT22;29610;49.022;12.114;2023-07-13T11:12:49;26.30;53.20
18794;DHT22;29610;49.022;12.114;2023-07-13T11:15:42;26.20;54.00
18794;DHT22;29610;49.022;12.114;2023-07-13T11:18:22;26.60;52.90
18794;DHT22;29610;49.022;12.114;2023-07-13T11:20:52;27.40;53.30
18794;DHT22;29610;49.022;12.114;2023-07-13T11:24:03;27.80;52.30
18794;DHT22;29610;49.022;12.114;2023-07-13T11:26:51;27.70;50.90
18794;DHT22;29610;49.022;12.114;2023-07-13T11:29:31;28.10;48.60
18794;DHT22;29610;49.022;12.114;2023-07-13T11:32:22;28.50;49.80
18794;DHT22;29610;49.022;12.114;2023-07-13T11:34:54;29.10;48.50
18794;DHT22;29610;49.022;12.114;2023-07-13T11:37:23;29.20;47.80
18794;DHT22;29610;49.022;12.114;2023-07-13T11:39:53;29.40;47.90
18794;DHT22;29610;49.022;12.114;2023-07-13T11:42:23;29.70;47.00
18794;DHT22;29610;49.022;12.114;2023-07-13T11:44:52;29.80;45.90
18794;DHT22;29610;49.022;12.114;2023-07-13T11:47:40;30.60;45.80
18794;DHT22;29610;49.022;12.114;2023-07-13T11:50:18;30.50;45.00
18794;DHT22;29610;49.022;12.114;2023-07-13T11:52:49;30.90;45.30
18794;DHT22;29610;49.022;12.114;2023-07-13T11:55:22;30.70;44.70
18794;DHT22;29610;49.022;12.114;2023-07-13T11:57:57;31.00;43.50
18794;DHT22;29610;49.022;12.114;2023-07-13T12:00:30;31.40;44.70
18794;DHT22;29610;49.022;12.114;2023-07-13T12:03:02;31.60;43.70
18794;DHT22;29610;49.022;12.114;2023-07-13T12:05:32;31.60;43.30
18794;DHT22;29610;49.022;12.114;2023-07-13T12:08:09;31.30;42.70
18794;DHT22;29610;49.022;12.114;2023-07-13T12:10:57;31.80;42.80
18794;DHT22;29610;49.022;12.114;2023-07-13T12:13:29;32.10;43.00
18794;DHT22;29610;49.022;12.114;2023-07-13T12:15:57;32.10;40.90
18794;DHT22;29610;49.022;12.114;2023-07-13T12:18:29;32.10;40.40
18794;DHT22;29610;49.022;12.114;2023-07-13T12:21:01;32.20;41.90
18794;DHT22;29610;49.022;12.114;2023-07-13T12:23:32;32.40;44.20
18794;DHT22;29610;49.022;12.114;2023-07-13T12:26:04;32.70;43.50
18794;DHT22;29610;49.022;12.114;2023-07-13T12:28:43;33.30;41.10
18794;DHT22;29610;49.022;12.114;2023-07-13T12:31:29;32.70;40.00
18794;DHT22;29610;49.022;12.114;2023-07-13T12:34:01;32.40;40.20
18794;DHT22;29610;49.022;12.114;2023-07-13T12:36:37;31.50;40.20
18794;DHT22;29610;49.022;12.114;2023-07-13T12:39:14;30.90;42.90
18794;DHT22;29610;49.022;12.114;2023-07-13T12:41:46;31.20;42.30
18794;DHT22;29610;49.022;12.114;2023-07-13T12:44:19;31.80;43.00
18794;DHT22;29610;49.022;12.114;2023-07-13T12:46:56;32.30;40.00
18794;DHT22;29610;49.022;12.114;2023-07-13T12:49:31;32.20;40.90
18794;DHT22;29610;49.022;12.114;2023-07-13T12:52:09;32.20;39.30
18794;DHT22;29610;49.022;12.114;2023-07-13T12:54:51;31.80;39.30
18794;DHT22;29610;49.022;12.114;2023-07-13T12:57:38;31.50;40.30
18794;DHT22;29610;49.022;12.114;2023-07-13T13:00:22;31.00;40.60
18794;DHT22;29610;49.022;12.114;2023-07-13T13:02:53;30.70;40.20
18794;DHT22;29610;49.022;12.114;2023-07-13T13:05:42;30.50;40.80
18794;DHT22;29610;49.022;12.114;2023-07-13T13:08:12;30.00;40.60
18794;DHT22;29610;49.022;12.114;2023-07-13T13:10:43;29.80;41.00
18794;DHT22;29610;49.022;12.114;2023-07-13T13:13:12;29.70;41.70
18794;DHT22;29610;49.022;12.114;2023-07-13T13:15:43;30.10;43.10
18794;DHT22;29610;49.022;12.114;2023-07-13T13:18:16;31.10;41.60
18794;DHT22;29610;49.022;12.114;2023-07-13T13:20:46;31.20;40.60
18794;DHT22;29610;49.022;12.114;2023-07-13T13:23:17;31.20;40.10
18794;DHT22;29610;49.022;12.114;2023-07-13T13:25:49;31.20;39.50
18794;DHT22;29610;49.022;12.114;2023-07-13T13:28:20;31.60;39.80
18794;DHT22;29610;49.022;12.114;2023-07-13T13:30:51;31.70;39.10
18794;DHT22;29610;49.022;12.114;2023-07-13T13:33:21;32.00;40.20
18794;DHT22;29610;49.022;12.114;2023-07-13T13:35:50;32.00;38.10
18794;DHT22;29610;49.022;12.114;2023-07-13T13:38:21;32.10;38.30
18794;DHT22;29610;49.022;12.114;2023-07-13T13:40:53;32.50;39.20
18794;DHT22;29610;49.022;12.114;2023-07-13T13:43:24;32.50;38.40
18794;DHT22;29610;49.022;12.114;2023-07-13T13:45:57;32.00;38.00
18794;DHT22;29610;49.022;12.114;2023-07-13T13:48:31;31.40;40.20
18794;DHT22;29610;49.022;12.114;2023-07-13T13:51:03;31.70;39.50
18794;DHT22;29610;49.022;12.114;2023-07-13T13:53:42;31.40;38.30
18794;DHT22;29610;49.022;12.114;2023-07-13T13:56:11;30.70;39.00
18794;DHT22;29610;49.022;12.114;2023-07-13T13:58:41;30.10;39.30
18794;DHT22;29610;49.022;12.114;2023-07-13T14:01:21;29.90;41.40
18794;DHT22;29610;49.022;12.114;2023-07-13T14:03:51;29.90;41.80
18794;DHT22;29610;49.022;12.114;2023-07-13T14:06:20;29.80;41.60
18794;DHT22;29610;49.022;12.114;2023-07-13T14:08:49;29.50;42.80
18794;DHT22;29610;49.022;12.114;2023-07-13T14:11:20;30.00;42.60
18794;DHT22;29610;49.022;12.114;2023-07-13T14:13:51;29.90;40.70
18794;DHT22;29610;49.022;12.114;2023-07-13T14:16:26;29.70;41.60
18794;DHT22;29610;49.022;12.114;2023-07-13T14:19:00;29.60;41.50
18794;DHT22;29610;49.022;12.114;2023-07-13T14:21:29;29.60;41.90
18794;DHT22;29610;49.022;12.114;2023-07-13T14:23:58;29.50;41.20
18794;DHT22;29610;49.022;12.114;2023-07-13T14:26:26;29.20;40.60
18794;DHT22;29610;49.022;12.114;2023-07-13T14:29:08;28.70;42.50
18794;DHT22;29610;49.022;12.114;2023-07-13T14:31:43;28.70;43.30
18794;DHT22;29610;49.022;12.114;2023-07-13T14:34:12;28.70;41.50
18794;DHT22;29610;49.022;12.114;2023-07-13T14:36:43;28.80;42.00
18794;DHT22;29610;49.022;12.114;2023-07-13T14:39:15;28.90;41.90
18794;DHT22;29610;49.022;12.114;2023-07-13T14:41:46;28.90;42.50
18794;DHT22;29610;49.022;12.114;2023-07-13T14:44:17;28.90;44.40
18794;DHT22;29610;49.022;12.114;2023-07-13T14:46:51;29.20;43.00
18794;DHT22;29610;49.022;12.114;2023-07-13T14:49:24;29.50;41.20
18794;DHT22;29610;49.022;12.114;2023-07-13T14:51:58;29.30;41.50
18794;DHT22;29610;49.022;12.114;2023-07-13T14:54:28;29.20;41.30
18794;DHT22;29610;49.022;12.114;2023-07-13T14:56:56;28.90;42.10
18794;DHT22;29610;49.022;12.114;2023-07-13T14:59:25;28.80;41.90
18794;DHT22;29610;49.022;12.114;2023-07-13T15:01:54;28.70;42.70
18794;DHT22;29610;49.022;12.114;2023-07-13T15:04:23;28.60;45.40
18794;DHT22;29610;49.022;12.114;2023-07-13T15:06:54;28.80;44.30
18794;DHT22;29610;49.022;12.114;2023-07-13T15:09:24;28.30;43.00
18794;DHT22;29610;49.022;12.114;2023-07-13T15:11:54;27.90;45.00
18794;DHT22;29610;49.022;12.114;2023-07-13T15:14:24;27.80;43.70
18794;DHT22;29610;49.022;12.114;2023-07-13T15:16:58;27.60;44.60
18794;DHT22;29610;49.022;12.114;2023-07-13T15:19:27;27.80;44.60
18794;DHT22;29610;49.022;12.114;2023-07-13T15:21:56;28.10;43.30
18794;DHT22;29610;49.022;12.114;2023-07-13T15:24:25;28.40;42.80
18794;DHT22;29610;49.022;12.114;2023-07-13T15:26:54;28.40;43.20
18794;DHT22;29610;49.022;12.114;2023-07-13T15:29:23;28.00;43.70
18794;DHT22;29610;49.022;12.114;2023-07-13T15:31:52;27.50;44.10
18794;DHT22;29610;49.022;12.114;2023-07-13T15:34:24;27.20;43.20
18794;DHT22;29610;49.022;12.114;2023-07-13T15:36:54;27.20;44.50
18794;DHT22;29610;49.022;12.114;2023-07-13T15:39:23;27.60;44.70
18794;DHT22;29610;49.022;12.114;2023-07-13T15:41:52;27.90;43.40
18794;DHT22;29610;49.022;12.114;2023-07-13T15:44:25;27.90;42.50